Time;durP1;ratioP1;P1;durP2;ratioP2;P2;SDS_P1;SDS_P2;PMS_P1;PMS_P2;Temp;Humidity;BMP_temperature;BMP_pressure;BME280_temperature;BME280_humidity;BME280_pressure;Samples;Min_cycle;Max_cycle;Signal;HPM_P1;HPM_P2
2022/09/24 00:01:47;;;;;;;2.05;1.83;;;;;;;13.84;61.91;96961.69;4950840;28;20207;-77
2022/09/24 00:04:13;;;;;;;3.72;2.10;;;;;;;13.78;62.18;96957.56;4948535;28;20111;-77
2022/09/24 00:06:43;;;;;;;2.25;2.05;;;;;;;13.63;62.24;96966.25;4950062;28;20198;-77
2022/09/24 00:09:10;;;;;;;3.15;2.00;;;;;;;13.70;62.31;96953.66;4934262;28;20270;-77
2022/09/24 00:11:37;;;;;;;3.33;1.83;;;;;;;13.76;62.29;96957.03;4952068;28;20210;-77
2022/09/24 00:14:03;;;;;;;3.10;2.25;;;;;;;13.78;62.26;96957.56;4946688;28;20313;-78
2022/09/24 00:16:32;;;;;;;5.00;2.60;;;;;;;13.73;63.04;96952.34;4948407;28;20157;-77
2022/09/24 00:18:58;;;;;;;3.45;1.67;;;;;;;13.76;63.33;96949.19;4934110;28;20286;-76
2022/09/24 00:21:27;;;;;;;1.88;1.50;;;;;;;13.71;63.29;96949.19;4917511;28;20191;-77
2022/09/24 00:24:05;;;;;;;3.47;1.95;;;;;;;13.56;62.87;96944.84;4932404;28;20240;-76
2022/09/24 00:26:49;;;;;;;3.92;2.00;;;;;;;13.77;62.67;96950.75;4932930;28;20180;-77
2022/09/24 00:29:20;;;;;;;4.28;1.90;;;;;;;13.81;62.37;96946.53;4929642;28;20191;-77
2022/09/24 00:31:46;;;;;;;3.85;2.15;;;;;;;13.78;62.54;96944.47;4942931;28;20667;-77
2022/09/24 00:34:11;;;;;;;3.15;2.00;;;;;;;13.74;63.33;96944.22;4930091;28;20179;-77
2022/09/24 00:36:37;;;;;;;2.08;1.80;;;;;;;13.73;62.98;96934.03;4951168;28;20218;-75
2022/09/24 00:39:03;;;;;;;2.47;1.95;;;;;;;13.69;62.80;96925.91;4947325;28;20623;-77
2022/09/24 00:41:32;;;;;;;1.88;1.67;;;;;;;13.60;63.11;96930.94;4932300;28;20646;-76
2022/09/24 00:43:58;;;;;;;2.75;2.28;;;;;;;13.61;63.16;96932.50;4908554;28;20651;-77
2022/09/24 00:46:37;;;;;;;1.60;1.50;;;;;;;13.56;63.15;96929.94;4947911;28;20215;-77
2022/09/24 00:49:14;;;;;;;2.90;2.08;;;;;;;13.34;63.41;96930.28;4926823;28;20232;-78
2022/09/24 00:51:46;;;;;;;2.38;1.48;;;;;;;13.34;63.42;96926.88;4913864;28;20259;-76
2022/09/24 00:54:16;;;;;;;2.95;1.73;;;;;;;13.33;63.36;96927.94;4950412;28;20287;-77
2022/09/24 00:56:43;;;;;;;2.90;1.83;;;;;;;13.33;63.08;96925.31;4929421;28;20249;-76
2022/09/24 00:59:11;;;;;;;3.22;1.70;;;;;;;13.23;63.02;96926.91;4939167;28;20108;-77
2022/09/24 01:01:36;;;;;;;1.73;1.33;;;;;;;13.32;63.28;96929.00;4940349;28;20272;-77
2022/09/24 01:04:03;;;;;;;2.80;1.60;;;;;;;13.27;63.11;96914.84;4922251;28;20219;-77
2022/09/24 01:06:28;;;;;;;2.03;1.70;;;;;;;13.25;63.47;96914.34;4935850;28;20298;-77
2022/09/24 01:08:54;;;;;;;3.75;2.38;;;;;;;13.18;63.57;96903.38;4954447;28;20232;-76
2022/09/24 01:11:35;;;;;;;2.05;1.77;;;;;;;12.98;63.65;96908.69;4943407;28;20286;-77
2022/09/24 01:14:12;;;;;;;3.20;2.20;;;;;;;12.98;63.62;96909.47;4935205;28;20258;-76
2022/09/24 01:16:52;;;;;;;2.92;2.72;;;;;;;13.00;63.41;96906.59;4955288;28;20717;-77
2022/09/24 01:19:47;;;;;;;2.83;2.20;;;;;;;12.85;63.77;96902.16;4928662;28;20190;-75
2022/09/24 01:22:22;;;;;;;3.17;2.17;;;;;;;12.98;63.85;96904.22;4937955;28;20114;-77
2022/09/24 01:25:03;;;;;;;2.35;1.80;;;;;;;12.76;63.60;96901.16;4955076;28;20281;-77
2022/09/24 01:27:48;;;;;;;2.55;1.80;;;;;;;12.77;63.84;96892.28;4930224;28;20198;-77
2022/09/24 01:30:14;;;;;;;3.70;1.77;;;;;;;12.87;64.03;96879.97;4946919;28;20383;-77
2022/09/24 01:32:59;;;;;;;2.33;1.60;;;;;;;12.89;64.04;96885.72;4935432;28;20651;-76
2022/09/24 01:35:26;;;;;;;1.65;1.48;;;;;;;12.88;64.01;96886.75;4957980;28;20192;-76
2022/09/24 01:37:55;;;;;;;1.98;1.50;;;;;;;12.76;63.78;96888.09;4921252;28;20648;-77
2022/09/24 01:40:22;;;;;;;1.90;1.65;;;;;;;12.74;63.55;96883.91;4955888;28;20293;-77
2022/09/24 01:42:49;;;;;;;4.53;1.60;;;;;;;12.73;63.54;96878.94;4962303;28;20616;-77
2022/09/24 01:45:16;;;;;;;1.67;1.58;;;;;;;12.90;62.82;96876.84;4943164;28;20641;-77
2022/09/24 01:47:42;;;;;;;3.40;2.03;;;;;;;12.95;62.32;96883.84;4945359;28;20187;-77
2022/09/24 01:50:12;;;;;;;1.85;1.70;;;;;;;12.76;62.36;96881.03;4948671;28;20151;-77
2022/09/24 01:52:47;;;;;;;2.72;2.15;;;;;;;12.68;62.71;96876.34;4965074;28;20187;-76
2022/09/24 01:55:15;;;;;;;2.53;1.92;;;;;;;12.55;63.42;96880.31;4967029;28;20186;-77
2022/09/24 01:57:45;;;;;;;1.90;1.60;;;;;;;12.49;63.30;96876.13;4964951;28;20285;-77
2022/09/24 02:00:13;;;;;;;2.30;1.65;;;;;;;12.63;62.96;96878.97;4964147;28;20276;-77
2022/09/24 02:03:09;;;;;;;3.35;1.90;;;;;;;12.39;63.22;96876.94;4948125;28;20647;-77
2022/09/24 02:05:48;;;;;;;2.63;1.50;;;;;;;12.32;63.99;96876.41;4965694;28;20255;-77
2022/09/24 02:08:17;;;;;;;2.33;1.60;;;;;;;12.33;63.40;96865.69;4965013;28;20202;-76
2022/09/24 02:10:54;;;;;;;3.55;1.90;;;;;;;12.41;63.40;96861.78;4966470;28;20376;-76
2022/09/24 02:13:23;;;;;;;3.50;1.60;;;;;;;12.27;64.03;96861.53;4939424;28;20215;-77
2022/09/24 02:15:49;;;;;;;2.90;1.50;;;;;;;12.29;63.66;96861.28;4959537;28;20115;-76
2022/09/24 02:18:17;;;;;;;4.45;1.85;;;;;;;12.27;64.11;96856.31;4949893;28;20203;-77
2022/09/24 02:20:43;;;;;;;3.05;1.90;;;;;;;12.28;63.87;96860.47;4950261;28;20342;-77
2022/09/24 02:23:10;;;;;;;2.42;1.77;;;;;;;12.23;64.07;96850.03;4956309;28;20324;-76
2022/09/24 02:25:56;;;;;;;3.45;1.60;;;;;;;12.06;64.10;96847.69;4952714;28;20208;-77
2022/09/24 02:28:22;;;;;;;3.60;2.17;;;;;;;12.22;64.34;96855.53;4956296;28;20686;-77
2022/09/24 02:31:04;;;;;;;2.70;2.28;;;;;;;12.09;64.58;96847.19;4948566;28;20360;-78
2022/09/24 02:36:16;;;;;;;3.97;2.20;;;;;;;12.20;64.70;96837.53;4934135;28;20266;-76
2022/09/24 02:38:41;;;;;;;2.25;1.83;;;;;;;12.18;64.76;96837.00;4924199;28;20160;-76
2022/09/24 02:41:07;;;;;;;2.38;1.80;;;;;;;12.17;64.84;96832.84;4950680;28;20203;-77
2022/09/24 02:43:34;;;;;;;2.40;2.13;;;;;;;12.18;65.04;96826.56;4949555;28;20179;-77
2022/09/24 02:46:00;;;;;;;2.75;2.00;;;;;;;12.16;64.94;96828.66;4935240;28;20168;-77
2022/09/24 02:48:25;;;;;;;3.22;2.17;;;;;;;12.10;64.68;96827.88;4959642;28;20252;-77
2022/09/24 02:50:51;;;;;;;2.45;1.88;;;;;;;12.09;65.20;96830.75;4937254;28;20233;-77
2022/09/24 02:53:16;;;;;;;2.85;2.15;;;;;;;12.07;64.93;96833.63;4936642;28;20216;-77
2022/09/24 02:55:41;;;;;;;3.28;1.75;;;;;;;12.11;65.21;96829.44;4955793;28;20734;-77
2022/09/24 02:58:07;;;;;;;3.05;2.20;;;;;;;12.18;64.41;96827.34;4937138;28;20695;-77
2022/09/24 03:00:32;;;;;;;4.53;2.33;;;;;;;12.15;64.02;96827.88;4944692;28;20281;-77
2022/09/24 03:02:58;;;;;;;2.22;1.80;;;;;;;12.12;63.97;96830.22;4951019;28;20188;-76
2022/09/24 03:05:23;;;;;;;2.42;2.00;;;;;;;12.08;64.40;96829.97;4932823;28;20199;-77
2022/09/24 03:07:50;;;;;;;2.78;2.00;;;;;;;12.01;64.72;96824.22;4954112;28;20261;-77
2022/09/24 03:10:15;;;;;;;2.90;2.00;;;;;;;12.05;64.76;96825.28;4960319;28;20191;-77
2022/09/24 03:12:42;;;;;;;2.67;1.92;;;;;;;12.06;64.50;96826.81;4941852;28;20210;-75
2022/09/24 03:15:08;;;;;;;2.92;1.83;;;;;;;12.07;64.38;96833.63;4948070;28;20215;-76
2022/09/24 03:17:33;;;;;;;2.95;1.77;;;;;;;12.08;64.65;96829.16;4958454;28;20627;-77
2022/09/24 03:19:59;;;;;;;3.50;1.90;;;;;;;12.02;64.76;96825.78;4951490;28;20168;-76
2022/09/24 03:22:24;;;;;;;2.97;1.70;;;;;;;12.03;64.92;96822.16;4959404;28;20191;-77
2022/09/24 03:24:50;;;;;;;2.72;1.98;;;;;;;12.06;64.87;96821.59;4953909;28;20385;-76
2022/09/24 03:27:15;;;;;;;2.80;1.67;;;;;;;12.06;64.91;96823.44;4962677;28;20271;-77
2022/09/24 03:32:25;;;;;;;2.70;1.52;;;;;;;12.20;64.25;96829.72;4953682;28;20184;-77
2022/09/24 03:34:50;;;;;;;3.28;1.90;;;;;;;12.22;64.42;96826.81;4938993;28;20773;-77
2022/09/24 03:37:15;;;;;;;2.30;2.08;;;;;;;12.12;64.55;96825.78;4958908;28;20284;-77
2022/09/24 03:39:41;;;;;;;2.22;2.03;;;;;;;12.08;64.63;96816.94;4956335;28;20369;-76
2022/09/24 03:42:06;;;;;;;4.10;1.63;;;;;;;12.06;64.95;96820.81;4960936;28;20281;-77
2022/09/24 03:44:31;;;;;;;2.20;1.95;;;;;;;11.99;65.34;96816.69;4961139;28;20189;-77
2022/09/24 03:46:57;;;;;;;2.22;2.03;;;;;;;11.97;65.31;96810.91;4941927;28;20202;-77
2022/09/24 03:49:23;;;;;;;1.85;1.75;;;;;;;12.01;65.11;96816.38;4965054;28;20194;-77
2022/09/24 03:51:49;;;;;;;2.15;1.95;;;;;;;12.02;64.48;96820.56;4967246;28;20202;-77
2022/09/24 03:54:15;;;;;;;2.30;1.80;;;;;;;12.06;64.16;96819.00;4955194;28;20183;-77
2022/09/24 03:56:41;;;;;;;2.97;1.98;;;;;;;11.93;65.19;96822.94;4958270;28;20206;-76
2022/09/24 03:59:09;;;;;;;2.40;1.50;;;;;;;11.75;64.98;96812.97;4943691;28;20759;-77
2022/09/24 04:01:36;;;;;;;2.60;1.65;;;;;;;11.87;65.16;96817.94;4940420;28;20174;-77
2022/09/24 04:04:02;;;;;;;2.97;1.70;;;;;;;11.91;65.00;96814.59;4957175;28;20605;-77
2022/09/24 04:06:27;;;;;;;2.00;1.58;;;;;;;11.94;64.59;96821.09;4954514;28;20393;-77
2022/09/24 04:08:53;;;;;;;2.17;1.60;;;;;;;11.89;64.71;96816.66;4955304;28;20263;-77
2022/09/24 04:11:18;;;;;;;3.40;1.65;;;;;;;11.90;64.76;96807.00;4960979;28;20208;-77
2022/09/24 04:13:44;;;;;;;3.83;1.90;;;;;;;11.91;64.86;96798.13;4955169;28;20775;-77
2022/09/24 04:16:09;;;;;;;1.83;1.70;;;;;;;11.91;65.21;96785.88;4960331;28;20207;-77
2022/09/24 04:18:34;;;;;;;3.47;2.00;;;;;;;11.88;65.32;96783.75;4956316;28;20253;-77
2022/09/24 04:21:00;;;;;;;2.78;2.10;;;;;;;11.84;65.63;96782.75;4917957;28;20525;-77
2022/09/24 04:23:26;;;;;;;2.05;1.85;;;;;;;11.90;65.05;96783.50;4957875;28;20652;-77
2022/09/24 04:25:53;;;;;;;3.10;1.95;;;;;;;11.91;64.99;96785.09;4932352;28;20188;-76
2022/09/24 04:28:18;;;;;;;2.17;1.77;;;;;;;11.99;64.45;96795.00;4946865;28;20309;-77
2022/09/24 04:30:44;;;;;;;5.10;1.92;;;;;;;12.03;64.21;96790.84;4953080;28;20199;-77
2022/09/24 04:33:09;;;;;;;3.40;2.33;;;;;;;11.90;64.89;96789.50;4958129;28;20151;-76
2022/09/24 04:35:36;;;;;;;2.00;1.50;;;;;;;11.92;65.21;96784.81;4933485;28;20696;-77
2022/09/24 04:38:02;;;;;;;3.95;1.70;;;;;;;11.96;65.20;96782.47;4944533;28;20273;-77
2022/09/24 04:40:28;;;;;;;2.67;1.70;;;;;;;11.98;65.63;96777.78;4959446;28;20206;-77
2022/09/24 04:42:54;;;;;;;3.25;2.05;;;;;;;11.97;65.44;96786.66;4924903;28;20186;-76
2022/09/24 04:45:20;;;;;;;3.30;1.50;;;;;;;11.97;65.25;96784.06;4957305;28;20221;-77
2022/09/24 04:47:56;;;;;;;2.13;1.80;;;;;;;11.85;65.94;96776.47;4938036;28;20272;-76
2022/09/24 04:50:22;;;;;;;1.85;1.52;;;;;;;12.06;65.43;96779.84;4957701;28;20646;-77
2022/09/24 04:52:47;;;;;;;2.45;1.92;;;;;;;12.12;65.52;96789.25;4954524;28;20199;-77
2022/09/24 04:55:13;;;;;;;2.42;1.80;;;;;;;12.12;65.37;96781.41;4947446;28;20266;-77
2022/09/24 04:57:40;;;;;;;3.78;1.90;;;;;;;12.13;65.59;96777.78;4955224;28;20680;-77
2022/09/24 05:00:08;;;;;;;2.38;1.55;;;;;;;12.15;65.84;96783.50;4951921;28;20212;-77
2022/09/24 05:02:34;;;;;;;1.73;1.40;;;;;;;12.23;65.30;96779.56;4939912;28;20291;-77
2022/09/24 05:04:59;;;;;;;1.98;1.63;;;;;;;12.22;65.58;96782.44;4950535;28;20288;-76
2022/09/24 05:07:24;;;;;;;3.22;2.30;;;;;;;12.24;66.37;96780.38;4959724;28;20297;-77
2022/09/24 05:09:50;;;;;;;1.90;1.65;;;;;;;12.29;65.86;96785.59;4959725;28;20138;-77
2022/09/24 05:12:15;;;;;;;4.45;1.50;;;;;;;12.45;65.24;96792.31;4930692;28;20233;-77
2022/09/24 05:14:40;;;;;;;3.50;2.15;;;;;;;12.49;64.52;96788.13;4952835;28;20298;-76
2022/09/24 05:17:06;;;;;;;2.05;1.20;;;;;;;12.42;64.70;96790.22;4951118;28;20570;-77
2022/09/24 05:19:32;;;;;;;2.47;1.52;;;;;;;12.54;64.89;96790.75;4921221;28;20195;-77
2022/09/24 05:21:57;;;;;;;3.47;1.45;;;;;;;12.64;64.49;96794.34;4932532;28;20210;-77
2022/09/24 05:24:23;;;;;;;1.45;1.35;;;;;;;12.70;64.23;96794.06;4959205;28;20257;-77
2022/09/24 05:29:32;;;;;;;2.10;1.65;;;;;;;12.62;64.79;96797.22;4956645;28;20641;-77
2022/09/24 05:31:59;;;;;;;2.83;1.70;;;;;;;12.64;64.63;96796.97;4918992;28;20165;-77
2022/09/24 05:34:24;;;;;;;2.00;1.23;;;;;;;12.72;64.48;96796.41;4950151;28;20238;-77
2022/09/24 05:36:50;;;;;;;1.45;1.17;;;;;;;12.63;63.92;96792.78;4948990;28;20191;-77
2022/09/24 05:39:15;;;;;;;1.67;1.50;;;;;;;12.54;64.68;96788.13;4938032;28;20295;-77
2022/09/24 05:41:42;;;;;;;3.10;1.70;;;;;;;12.49;65.64;96788.13;4935133;28;20195;-76
2022/09/24 05:44:08;;;;;;;2.00;1.25;;;;;;;12.52;65.18;96786.81;4943909;28;20277;-77
2022/09/24 05:46:33;;;;;;;2.47;1.38;;;;;;;12.62;65.04;96791.22;4954728;28;20248;-77
2022/09/24 05:48:58;;;;;;;1.92;1.38;;;;;;;12.65;65.36;96793.31;4944230;28;20288;-77
2022/09/24 05:51:24;;;;;;;2.03;1.83;;;;;;;12.65;65.34;96791.47;4948272;28;20272;-77
2022/09/24 05:53:49;;;;;;;1.95;1.50;;;;;;;12.65;65.48;96793.31;4932725;28;20307;-77
2022/09/24 05:56:19;;;;;;;2.47;1.90;;;;;;;12.73;65.42;96792.75;4967040;28;20203;-77
2022/09/24 05:58:48;;;;;;;2.20;1.50;;;;;;;12.67;65.03;96799.03;4948506;28;20164;-76
2022/09/24 06:01:14;;;;;;;2.05;1.50;;;;;;;12.80;64.94;96801.09;4943072;28;20202;-77
2022/09/24 06:03:39;;;;;;;2.80;1.80;;;;;;;12.80;65.14;96801.09;4964964;28;20164;-77
2022/09/24 06:06:05;;;;;;;1.90;1.70;;;;;;;12.79;64.81;96806.59;4948571;28;20750;-76
2022/09/24 06:08:33;;;;;;;2.55;1.83;;;;;;;12.90;64.56;96808.88;4948838;28;20214;-77
2022/09/24 06:11:01;;;;;;;2.42;1.98;;;;;;;13.04;64.64;96818.75;4932412;28;20573;-76
2022/09/24 06:13:27;;;;;;;2.22;1.70;;;;;;;13.19;63.50;96808.22;4956048;28;20180;-77
2022/09/24 06:15:52;;;;;;;2.65;2.33;;;;;;;13.14;64.19;96810.06;4929328;28;20199;-77
2022/09/24 06:18:17;;;;;;;3.00;2.15;;;;;;;13.10;63.57;96802.78;4955000;28;20656;-77
2022/09/24 06:20:43;;;;;;;2.47;2.15;;;;;;;13.11;64.52;96801.72;4934013;28;20193;-77
2022/09/24 06:23:08;;;;;;;2.53;1.95;;;;;;;13.14;64.68;96807.47;4938575;28;20603;-77
2022/09/24 06:25:34;;;;;;;3.05;1.83;;;;;;;13.22;64.55;96801.69;4938478;28;20531;-76
2022/09/24 06:28:01;;;;;;;1.60;1.50;;;;;;;13.30;64.28;96801.88;4952038;28;20266;-77
2022/09/24 06:30:31;;;;;;;1.42;1.25;;;;;;;13.44;63.66;96806.53;4953035;28;20180;-76
2022/09/24 06:33:04;;;;;;;2.30;2.10;;;;;;;13.34;64.06;96810.00;4954977;28;20318;-76
2022/09/24 06:35:41;;;;;;;2.20;1.98;;;;;;;13.42;64.09;96801.59;4952218;28;20648;-76
2022/09/24 06:38:10;;;;;;;4.60;1.70;;;;;;;13.48;64.34;96797.09;4947774;28;20258;-76
2022/09/24 06:40:35;;;;;;;2.08;1.67;;;;;;;13.60;64.40;96794.91;4941683;28;20199;-76
2022/09/24 06:43:00;;;;;;;2.60;2.40;;;;;;;13.70;64.97;96798.53;4959774;28;20603;-77
2022/09/24 06:45:26;;;;;;;2.33;2.10;;;;;;;13.80;64.86;96803.69;4950496;28;20195;-77
2022/09/24 06:47:54;;;;;;;3.13;2.28;;;;;;;13.85;63.97;96807.03;4955848;28;20334;-77
2022/09/24 06:50:20;;;;;;;3.13;2.85;;;;;;;13.92;63.99;96811.94;4954546;28;20266;-77
2022/09/24 06:52:46;;;;;;;2.63;2.22;;;;;;;13.98;63.22;96812.69;4952931;28;20157;-77
2022/09/24 06:55:11;;;;;;;1.98;1.70;;;;;;;13.94;62.53;96820.31;4958595;28;20212;-77
2022/09/24 06:57:36;;;;;;;3.03;1.83;;;;;;;13.92;62.13;96814.56;4927756;28;20278;-77
2022/09/24 07:00:03;;;;;;;2.85;1.90;;;;;;;13.94;62.30;96822.16;4954181;28;20206;-77
2022/09/24 07:02:29;;;;;;;3.38;2.03;;;;;;;13.92;62.62;96816.41;4956350;28;20233;-76
2022/09/24 07:04:55;;;;;;;4.40;2.00;;;;;;;13.93;62.62;96818.75;4951370;28;20195;-77
2022/09/24 07:07:31;;;;;;;2.75;1.90;;;;;;;13.99;62.50;96809.78;4959355;28;20214;-77
2022/09/24 07:09:57;;;;;;;3.97;2.97;;;;;;;14.08;63.45;96820.44;4952510;28;20614;-77
2022/09/24 07:12:23;;;;;;;6.22;5.22;;;;;;;14.17;63.31;96815.38;4949823;28;20701;-77
2022/09/24 07:14:49;;;;;;;6.57;5.97;;;;;;;14.32;63.48;96810.00;4957460;28;20160;-77
2022/09/24 07:17:14;;;;;;;11.40;8.15;;;;;;;14.49;63.26;96809.59;4923199;28;20310;-77
2022/09/24 07:19:40;;;;;;;10.75;8.57;;;;;;;14.67;62.83;96815.19;4954198;28;20632;-77
2022/09/24 07:22:06;;;;;;;7.85;7.05;;;;;;;14.87;62.60;96822.03;4930947;28;20222;-77
2022/09/24 07:24:31;;;;;;;7.88;6.50;;;;;;;15.03;62.23;96822.63;4929193;28;20176;-76
2022/09/24 07:26:57;;;;;;;8.00;6.80;;;;;;;15.15;61.95;96826.41;4955328;28;20214;-77
2022/09/24 07:29:22;;;;;;;9.82;8.82;;;;;;;15.27;62.13;96817.38;4956530;28;20268;-76
2022/09/24 07:31:48;;;;;;;10.65;9.55;;;;;;;15.35;61.96;96824.56;4933080;28;20284;-77
2022/09/24 07:34:13;;;;;;;12.15;10.52;;;;;;;15.43;61.25;96829.19;4946348;28;20211;-77
2022/09/24 07:36:39;;;;;;;9.75;8.75;;;;;;;15.51;61.69;96827.78;4939272;28;20202;-77
2022/09/24 07:39:05;;;;;;;4.38;3.97;;;;;;;15.62;61.66;96831.03;4949365;28;20253;-77
2022/09/24 07:41:31;;;;;;;2.15;1.95;;;;;;;15.77;62.10;96833.47;4941914;28;20304;-77
2022/09/24 07:43:57;;;;;;;2.83;2.60;;;;;;;15.82;62.27;96827.34;4942080;28;20273;-77
2022/09/24 07:46:23;;;;;;;2.55;2.13;;;;;;;15.93;62.44;96830.59;4931960;28;20327;-77
2022/09/24 07:48:51;;;;;;;2.20;2.00;;;;;;;16.00;62.42;96829.16;4945556;28;20243;-77
2022/09/24 07:51:16;;;;;;;2.15;1.95;;;;;;;16.09;61.90;96827.44;4930761;28;20105;-78
2022/09/24 07:53:41;;;;;;;2.53;1.90;;;;;;;16.11;61.58;96835.03;4963795;28;20236;-77
2022/09/24 07:56:07;;;;;;;1.98;1.55;;;;;;;16.19;61.63;96826.47;4965087;28;20354;-77
2022/09/24 07:58:32;;;;;;;2.90;1.52;;;;;;;16.25;61.66;96829.81;4963320;28;20632;-77
2022/09/24 08:00:58;;;;;;;4.65;1.98;;;;;;;16.32;61.61;96832.06;4963220;28;20171;-77
2022/09/24 08:03:24;;;;;;;2.25;1.70;;;;;;;16.38;61.65;96833.50;4947021;28;20687;-77
2022/09/24 08:05:50;;;;;;;1.98;1.42;;;;;;;16.52;61.21;96839.59;4963726;28;20199;-77
2022/09/24 08:08:18;;;;;;;2.22;1.48;;;;;;;16.45;60.77;96837.34;4922008;28;20196;-77
2022/09/24 08:10:43;;;;;;;2.28;1.80;;;;;;;16.46;60.77;96843.34;4919667;28;20191;-76
2022/09/24 08:13:09;;;;;;;3.42;1.58;;;;;;;16.40;60.69;96847.13;4951791;28;20672;-77
2022/09/24 08:15:35;;;;;;;2.58;1.52;;;;;;;16.46;59.79;96851.25;4933974;28;20357;-76
2022/09/24 08:18:02;;;;;;;2.17;1.50;;;;;;;16.50;59.51;96852.22;4949644;28;20251;-75
2022/09/24 08:20:28;;;;;;;1.90;1.20;;;;;;;16.47;59.71;96848.31;4917104;28;20191;-77
2022/09/24 08:22:53;;;;;;;2.15;1.30;;;;;;;16.47;59.93;96852.81;4917271;28;20237;-78
2022/09/24 08:25:19;;;;;;;1.40;1.30;;;;;;;16.52;60.18;96849.28;4950967;28;20289;-77
2022/09/24 08:27:44;;;;;;;1.65;1.45;;;;;;;16.59;60.52;96845.22;4949251;28;20180;-76
2022/09/24 08:30:10;;;;;;;2.17;2.00;;;;;;;16.60;61.00;96848.63;4935039;28;20691;-77
2022/09/24 08:32:36;;;;;;;2.20;2.00;;;;;;;16.67;61.25;96843.75;4936839;28;20193;-77
2022/09/24 08:35:01;;;;;;;3.50;2.17;;;;;;;16.75;60.62;96843.09;4939234;28;20197;-77
2022/09/24 08:37:28;;;;;;;2.95;1.98;;;;;;;16.80;60.04;96845.63;4926275;28;20118;-77
2022/09/24 08:39:53;;;;;;;1.50;1.40;;;;;;;16.78;60.04;96850.41;4951547;28;20121;-76
2022/09/24 08:42:36;;;;;;;2.15;1.95;;;;;;;16.53;61.38;96856.91;4953603;28;20124;-77
2022/09/24 08:47:51;;;;;;;2.63;2.25;;;;;;;16.58;60.79;96859.44;4949552;28;20367;-76
2022/09/24 08:50:23;;;;;;;4.32;1.75;;;;;;;16.63;60.62;96861.97;4948791;28;20183;-77
2022/09/24 08:52:52;;;;;;;2.38;2.05;;;;;;;16.67;60.04;96857.69;4937495;28;20263;-76
2022/09/24 08:55:25;;;;;;;3.78;1.50;;;;;;;16.67;60.00;96862.97;4961416;28;20221;-76
2022/09/24 08:57:58;;;;;;;2.33;1.60;;;;;;;16.64;60.57;96860.13;4952337;28;20278;-77
2022/09/24 09:00:23;;;;;;;1.98;1.83;;;;;;;16.89;60.04;96858.13;4948544;28;20190;-77
2022/09/24 09:03:00;;;;;;;4.68;2.40;;;;;;;16.85;60.45;96857.94;4946547;28;20219;-76
2022/09/24 09:06:13;;;;;;;5.15;2.60;;;;;;;17.08;60.67;96858.78;4930625;28;20216;-77
2022/09/24 09:09:00;;;;;;;3.75;2.50;;;;;;;17.36;59.66;96864.03;4944447;28;20279;-76
2022/09/24 09:11:29;;;;;;;5.05;2.75;;;;;;;17.71;58.31;96856.41;4938528;28;20185;-77
2022/09/24 09:14:02;;;;;;;3.00;2.67;;;;;;;17.81;57.66;96866.72;4916407;28;20477;-76
2022/09/24 09:16:32;;;;;;;6.45;3.20;;;;;;;18.01;58.32;96857.59;4935138;28;20186;-76
2022/09/24 09:19:08;;;;;;;4.20;2.72;;;;;;;18.02;57.75;96853.88;4953517;28;20726;-77
2022/09/24 09:21:42;;;;;;;3.53;2.65;;;;;;;18.26;57.47;96856.19;4940663;28;20253;-76
2022/09/24 09:24:24;;;;;;;7.07;3.63;;;;;;;18.20;56.60;96852.13;4946131;28;20133;-76
2022/09/24 09:26:55;;;;;;;3.40;3.00;;;;;;;18.47;57.16;96853.81;4940375;28;20366;-77
2022/09/24 09:29:23;;;;;;;3.25;2.80;;;;;;;18.78;56.45;96850.38;4955769;28;20195;-76
2022/09/24 09:32:03;;;;;;;4.13;3.33;;;;;;;18.67;56.27;96851.72;4938678;28;20293;-76
2022/09/24 09:34:51;;;;;;;3.88;2.80;;;;;;;18.87;55.48;96856.47;4954586;28;20239;-76
2022/09/24 09:37:31;;;;;;;3.10;2.70;;;;;;;18.94;55.83;96856.03;4925615;28;20202;-77
2022/09/24 09:40:04;;;;;;;3.70;3.10;;;;;;;18.90;55.38;96863.78;4948505;28;20200;-75
2022/09/24 09:42:39;;;;;;;3.88;2.85;;;;;;;18.65;55.58;96856.53;4958710;28;20270;-77
2022/09/24 09:45:18;;;;;;;2.13;1.92;;;;;;;18.51;56.49;96860.03;4937701;28;20221;-76
2022/09/24 09:47:49;;;;;;;4.65;2.90;;;;;;;18.59;56.38;96855.88;4940732;28;20223;-77
2022/09/24 09:50:44;;;;;;;4.38;2.50;;;;;;;18.55;57.40;96857.56;4937310;28;20072;-76
2022/09/24 09:53:24;;;;;;;3.67;3.28;;;;;;;18.52;57.54;96856.34;4958739;28;20209;-75
2022/09/24 09:55:55;;;;;;;12.07;3.80;;;;;;;18.57;57.75;96852.00;4948897;28;20808;-77
2022/09/24 09:58:25;;;;;;;8.27;3.90;;;;;;;18.56;58.51;96861.78;4948820;28;20559;-77
2022/09/24 10:00:52;;;;;;;4.82;3.40;;;;;;;18.79;57.91;96864.34;4941961;28;20203;-77
2022/09/24 10:03:30;;;;;;;5.35;3.10;;;;;;;18.57;58.92;96858.03;4957518;28;20172;-76
2022/09/24 10:06:04;;;;;;;9.82;3.92;;;;;;;18.75;58.54;96866.81;4947538;28;20173;-76
2022/09/24 10:08:30;;;;;;;6.82;4.00;;;;;;;18.87;59.33;96861.00;4930738;28;20590;-77
2022/09/24 10:10:58;;;;;;;5.68;3.70;;;;;;;18.95;58.00;96860.22;4948861;28;20278;-76
2022/09/24 10:13:24;;;;;;;4.00;3.58;;;;;;;19.06;57.61;96847.53;4946348;28;20294;-76
2022/09/24 10:15:52;;;;;;;6.20;4.20;;;;;;;18.99;57.53;96852.50;4949758;28;20397;-76
2022/09/24 10:18:34;;;;;;;4.90;4.00;;;;;;;19.02;57.70;96839.47;4947641;28;20191;-77
2022/09/24 10:21:02;;;;;;;5.32;4.00;;;;;;;19.25;58.18;96839.34;4956023;28;20102;-77
2022/09/24 10:23:38;;;;;;;4.10;3.60;;;;;;;19.33;57.75;96841.22;4955614;28;20389;-76
2022/09/24 10:26:04;;;;;;;5.05;4.53;;;;;;;19.61;56.47;96833.00;4961117;28;20172;-76
2022/09/24 10:31:21;;;;;;;5.40;3.90;;;;;;;20.33;56.00;96828.84;4942101;28;20329;-77
2022/09/24 10:33:49;;;;;;;5.40;3.95;;;;;;;20.80;53.46;96824.66;4955449;28;20311;-76
2022/09/24 10:36:19;;;;;;;4.47;4.00;;;;;;;21.08;52.71;96825.75;4950550;28;20237;-76
2022/09/24 10:38:44;;;;;;;3.72;3.42;;;;;;;21.12;52.25;96831.16;4955944;28;20195;-78
2022/09/24 10:41:29;;;;;;;3.95;3.40;;;;;;;20.80;52.96;96841.28;4956226;28;20609;-76
2022/09/24 10:44:03;;;;;;;4.30;3.70;;;;;;;20.91;53.13;96828.50;4946191;28;20591;-77
2022/09/24 10:46:52;;;;;;;4.45;4.05;;;;;;;20.55;53.12;96835.78;4934834;28;20631;-77
2022/09/24 10:49:37;;;;;;;5.50;3.65;;;;;;;20.42;53.91;96841.28;4949054;28;20179;-76
2022/09/24 10:52:15;;;;;;;4.65;3.97;;;;;;;20.23;54.00;96842.41;4928878;28;20246;-78
2022/09/24 10:54:50;;;;;;;4.75;3.70;;;;;;;20.00;54.46;96837.34;4947260;28;20203;-77
2022/09/24 10:57:20;;;;;;;4.32;3.75;;;;;;;20.10;54.91;96838.88;4920783;28;20195;-76
2022/09/24 11:00:10;;;;;;;5.03;3.72;;;;;;;19.76;56.91;96839.72;4957912;28;20656;-78
2022/09/24 11:03:23;;;;;;;4.07;3.63;;;;;;;19.77;56.30;96836.72;4955004;28;20273;-76
2022/09/24 11:06:11;;;;;;;15.70;10.00;;;;;;;19.96;57.30;96830.34;4921756;28;20173;-76
2022/09/24 11:08:53;;;;;;;4.43;4.03;;;;;;;20.50;54.89;96821.97;4926074;28;20265;-76
2022/09/24 11:11:29;;;;;;;4.15;3.75;;;;;;;20.87;53.09;96827.56;4936345;28;20236;-76
2022/09/24 11:14:16;;;;;;;4.93;4.28;;;;;;;20.92;53.21;96841.41;4916353;28;20191;-76
2022/09/24 11:16:59;;;;;;;5.35;4.05;;;;;;;21.00;52.67;96828.44;4955562;28;20286;-76
2022/09/24 11:19:33;;;;;;;101.68;68.05;;;;;;;21.30;52.42;96831.81;4953399;28;20219;-76
2022/09/24 11:21:59;;;;;;;5.43;4.45;;;;;;;21.76;51.18;96832.72;4938203;28;20247;-77
2022/09/24 11:24:36;;;;;;;4.90;4.47;;;;;;;21.59;51.21;96825.72;4939514;28;20735;-78
2022/09/24 11:27:28;;;;;;;4.32;3.92;;;;;;;21.48;51.65;96825.34;4939899;28;20186;-78
2022/09/24 11:29:59;;;;;;;5.60;4.00;;;;;;;21.78;51.13;96824.47;4943455;28;20281;-76
2022/09/24 11:32:28;;;;;;;4.20;3.83;;;;;;;21.65;51.77;96824.41;4940856;28;20317;-76
2022/09/24 11:35:02;;;;;;;4.00;3.67;;;;;;;21.73;50.96;96825.47;4915104;28;20202;-75
2022/09/24 11:37:38;;;;;;;6.07;3.93;;;;;;;21.59;50.96;96830.25;4953910;28;20186;-76
2022/09/24 11:40:09;;;;;;;4.72;4.07;;;;;;;21.27;51.32;96825.31;4931737;28;20195;-77
2022/09/24 11:43:00;;;;;;;6.15;4.10;;;;;;;20.89;53.08;96825.41;4956119;28;20268;-78
2022/09/24 11:45:32;;;;;;;4.38;4.03;;;;;;;20.84;53.85;96823.72;4963584;28;20751;-77
2022/09/24 11:48:07;;;;;;;5.13;4.38;;;;;;;20.86;53.37;96823.38;4963650;28;20196;-76
2022/09/24 11:50:45;;;;;;;4.22;3.75;;;;;;;20.75;53.48;96818.47;4965704;28;20708;-78
2022/09/24 11:53:35;;;;;;;4.72;4.32;;;;;;;20.64;53.79;96811.97;4967851;28;20278;-77
2022/09/24 11:56:06;;;;;;;5.90;4.00;;;;;;;20.97;53.56;96816.63;4950208;28;20271;-76
2022/09/24 11:58:33;;;;;;;6.97;4.30;;;;;;;21.39;53.44;96807.94;4945404;28;20173;-76
2022/09/24 12:01:05;;;;;;;5.53;4.25;;;;;;;21.48;51.98;96811.31;4950009;28;20194;-77